createdAt,value
2022-08-20T00:02:15.261Z,4.73
2022-08-20T00:04:45.446Z,4.10
2022-08-20T00:07:14.399Z,4.17
2022-08-20T00:09:43.329Z,4.80
2022-08-20T00:12:13.668Z,4.30
2022-08-20T00:14:42.762Z,4.50
2022-08-20T00:17:11.152Z,4.53
2022-08-20T00:19:39.585Z,4.57
2022-08-20T00:22:09.369Z,4.67
2022-08-20T00:24:37.680Z,4.50
2022-08-20T00:27:05.994Z,4.90
2022-08-20T00:29:34.352Z,4.40
2022-08-20T00:32:02.717Z,4.43
2022-08-20T00:34:31.007Z,5.40
2022-08-20T00:36:59.327Z,4.07
2022-08-20T00:39:29.046Z,4.47
2022-08-20T00:41:57.390Z,4.10
2022-08-20T00:44:25.718Z,4.40
2022-08-20T00:46:55.524Z,4.10
2022-08-20T00:49:28.540Z,4.43
2022-08-20T00:52:03.728Z,4.23
2022-08-20T00:54:46.589Z,4.13
2022-08-20T00:57:24.529Z,4.13
2022-08-20T00:59:54.129Z,4.30
2022-08-20T01:02:27.572Z,4.30
2022-08-20T01:04:57.002Z,4.07
2022-08-20T01:10:11.858Z,4.63
2022-08-20T01:12:43.473Z,4.80
2022-08-20T01:15:16.612Z,4.13
2022-08-20T01:17:52.818Z,4.40
2022-08-20T01:20:28.085Z,4.33
2022-08-20T01:23:30.131Z,4.10
2022-08-20T01:26:07.047Z,4.07
2022-08-20T01:28:43.633Z,4.33
2022-08-20T01:31:16.700Z,4.90
2022-08-20T01:33:47.337Z,4.20
2022-08-20T01:36:18.466Z,3.90
2022-08-20T01:38:54.224Z,4.43
2022-08-20T01:41:50.680Z,4.27
2022-08-20T01:44:20.038Z,4.10
2022-08-20T01:46:51.308Z,3.77
2022-08-20T01:49:23.946Z,3.93
2022-08-20T01:51:54.154Z,3.90
2022-08-20T01:54:23.709Z,3.97
2022-08-20T01:56:57.897Z,3.87
2022-08-20T01:59:26.341Z,3.77
2022-08-20T02:01:55.770Z,3.83
2022-08-20T02:04:24.680Z,3.83
2022-08-20T02:06:57.664Z,3.73
2022-08-20T02:09:27.665Z,3.60
2022-08-20T02:11:58.552Z,4.13
2022-08-20T02:14:28.074Z,3.57
2022-08-20T02:16:58.381Z,3.50
2022-08-20T02:19:31.272Z,3.00
2022-08-20T02:22:06.419Z,3.60
2022-08-20T02:24:35.523Z,3.57
2022-08-20T02:27:05.412Z,3.00
2022-08-20T02:29:33.834Z,3.37
2022-08-20T02:32:32.508Z,3.60
2022-08-20T02:34:50.939Z,3.80
2022-08-20T02:37:19.375Z,3.37
2022-08-20T02:39:48.368Z,3.80
2022-08-20T02:42:18.186Z,3.57
2022-08-20T02:44:46.520Z,3.40
2022-08-20T02:47:14.938Z,3.23
2022-08-20T02:49:43.250Z,3.23
2022-08-20T02:52:11.758Z,3.37
2022-08-20T02:54:40.075Z,3.93
2022-08-20T02:57:14.107Z,4.10
2022-08-20T02:59:45.248Z,3.67
2022-08-20T03:02:13.777Z,3.97
2022-08-20T03:04:42.866Z,3.90
2022-08-20T03:07:12.212Z,3.63
2022-08-20T03:09:41.202Z,4.13
2022-08-20T03:12:10.061Z,4.67
2022-08-20T03:14:38.932Z,4.10
2022-08-20T03:17:08.760Z,3.70
2022-08-20T03:19:37.119Z,3.83
2022-08-20T03:22:06.126Z,3.90
2022-08-20T03:24:34.441Z,4.10
2022-08-20T03:27:02.751Z,4.07
2022-08-20T03:29:31.118Z,3.80
2022-08-20T03:31:59.503Z,3.97
2022-08-20T03:34:29.311Z,3.73
2022-08-20T03:36:57.638Z,3.90
2022-08-20T03:39:25.963Z,3.70
2022-08-20T03:41:54.238Z,3.90
2022-08-20T03:44:22.548Z,3.77
2022-08-20T03:46:50.997Z,3.87
2022-08-20T03:49:19.369Z,3.70
2022-08-20T03:51:58.244Z,3.50
2022-08-20T03:54:31.629Z,3.23
2022-08-20T03:57:02.308Z,3.90
2022-08-20T03:59:33.036Z,4.10
2022-08-20T04:02:01.743Z,3.40
2022-08-20T04:04:30.151Z,4.00
2022-08-20T04:06:59.932Z,3.93
2022-08-20T04:09:28.948Z,3.97
2022-08-20T04:12:00.974Z,3.50
2022-08-20T04:14:30.073Z,4.00
2022-08-20T04:16:59.005Z,4.37
2022-08-20T04:19:32.433Z,3.93
2022-08-20T04:22:04.066Z,4.33
2022-08-20T04:24:32.806Z,4.50
2022-08-20T04:27:02.774Z,4.40
2022-08-20T04:29:35.001Z,4.20
2022-08-20T04:32:06.129Z,4.10
2022-08-20T04:34:35.725Z,4.50
2022-08-20T04:37:06.628Z,4.60
2022-08-20T04:40:06.269Z,4.43
2022-08-20T04:42:36.955Z,4.47
2022-08-20T04:45:07.747Z,4.57
2022-08-20T04:47:36.561Z,4.00
2022-08-20T04:50:06.376Z,4.90
2022-08-20T04:52:37.794Z,4.53
2022-08-20T04:55:07.582Z,4.70
2022-08-20T04:57:38.369Z,5.03
2022-08-20T05:00:11.159Z,4.57
2022-08-20T05:02:39.576Z,4.30
2022-08-20T05:05:08.980Z,4.07
2022-08-20T05:07:43.289Z,4.53
2022-08-20T05:10:15.116Z,4.80
2022-08-20T05:12:43.973Z,4.27
2022-08-20T05:15:26.161Z,5.07
2022-08-20T05:18:00.667Z,4.80
2022-08-20T05:20:30.615Z,4.50
2022-08-20T05:23:00.985Z,4.80
2022-08-20T05:25:30.578Z,5.17
2022-08-20T05:28:00.671Z,4.60
2022-08-20T05:30:34.136Z,5.40
2022-08-20T05:33:03.446Z,4.70
2022-08-20T05:35:34.436Z,5.67
2022-08-20T05:38:04.240Z,5.20
2022-08-20T05:40:32.927Z,5.60
2022-08-20T05:43:04.615Z,5.23
2022-08-20T05:45:33.704Z,5.10
2022-08-20T05:48:06.520Z,6.00
2022-08-20T05:50:35.746Z,5.83
2022-08-20T05:53:05.536Z,5.73
2022-08-20T05:55:34.012Z,5.53
2022-08-20T05:58:05.447Z,5.50
2022-08-20T06:00:36.339Z,6.10
2022-08-20T06:03:22.108Z,6.40
2022-08-20T06:05:51.021Z,5.53
2022-08-20T06:08:20.814Z,5.73
2022-08-20T06:10:49.183Z,5.97
2022-08-20T06:13:17.507Z,5.90
2022-08-20T06:15:45.914Z,5.77
2022-08-20T06:18:27.852Z,5.90
2022-08-20T06:20:57.304Z,6.50
2022-08-20T06:23:27.620Z,5.83
2022-08-20T06:26:15.998Z,5.67
2022-08-20T06:28:54.088Z,6.17
2022-08-20T06:31:23.157Z,5.87
2022-08-20T06:33:51.552Z,5.40
2022-08-20T06:36:20.336Z,6.10
2022-08-20T06:38:50.325Z,6.20
2022-08-20T06:41:18.769Z,6.77
2022-08-20T06:43:47.095Z,5.63
2022-08-20T06:46:15.736Z,5.80
2022-08-20T06:48:44.190Z,5.53
2022-08-20T06:51:12.560Z,6.30
2022-08-20T06:53:41.162Z,6.00
2022-08-20T06:56:10.939Z,5.47
2022-08-20T06:58:39.424Z,5.97
2022-08-20T07:01:10.125Z,6.33
2022-08-20T07:03:39.373Z,5.90
2022-08-20T07:06:11.189Z,6.20
2022-08-20T07:08:40.393Z,6.10
2022-08-20T07:11:10.883Z,6.13
2022-08-20T07:13:40.969Z,5.67
2022-08-20T07:16:09.334Z,6.90
2022-08-20T07:18:37.722Z,6.97
2022-08-20T07:21:06.423Z,6.57
2022-08-20T07:23:36.383Z,6.40
2022-08-20T07:26:05.496Z,6.67
2022-08-20T07:28:35.495Z,6.90
2022-08-20T07:31:21.432Z,6.87
2022-08-20T07:33:50.327Z,6.63
2022-08-20T07:36:19.694Z,6.80
2022-08-20T07:38:51.103Z,6.67
2022-08-20T07:41:21.450Z,7.17
2022-08-20T07:43:51.198Z,7.03
2022-08-20T07:46:22.505Z,7.13
2022-08-20T07:48:52.367Z,6.77
2022-08-20T07:51:23.246Z,7.50
2022-08-20T07:53:52.838Z,7.60
2022-08-20T07:56:24.742Z,7.50
2022-08-20T07:58:59.019Z,8.23
2022-08-20T08:01:31.779Z,8.73
2022-08-20T08:04:01.261Z,8.50
2022-08-20T08:06:31.434Z,8.80
2022-08-20T08:09:08.497Z,8.80
2022-08-20T08:11:46.498Z,8.50
2022-08-20T08:14:23.465Z,8.63
2022-08-20T08:16:52.739Z,9.37
2022-08-20T08:19:21.415Z,9.13
2022-08-20T08:21:50.333Z,8.10
2022-08-20T08:24:21.813Z,10.27
2022-08-20T08:26:52.532Z,10.97
2022-08-20T08:29:22.229Z,9.37
2022-08-20T08:31:50.561Z,11.30
2022-08-20T08:34:18.844Z,11.03
2022-08-20T08:36:47.293Z,10.67
2022-08-20T08:39:16.266Z,11.30
2022-08-20T08:41:49.733Z,11.67
2022-08-20T08:44:23.718Z,11.50
2022-08-20T08:46:56.584Z,10.33
2022-08-20T08:49:33.939Z,11.20
2022-08-20T08:52:12.327Z,11.90
2022-08-20T08:54:47.385Z,12.50
2022-08-20T08:57:16.737Z,12.83
2022-08-20T09:00:03.504Z,11.63
2022-08-20T09:02:35.359Z,11.50
2022-08-20T09:05:15.027Z,13.90
2022-08-20T09:07:46.703Z,11.43
2022-08-20T09:10:15.017Z,13.20
2022-08-20T09:12:58.300Z,13.07
2022-08-20T09:15:28.382Z,13.20
2022-08-20T09:17:56.812Z,13.70
2022-08-20T09:20:28.480Z,13.30
2022-08-20T09:22:57.044Z,13.83
2022-08-20T09:25:26.027Z,13.80
2022-08-20T09:27:54.312Z,13.50
2022-08-20T09:30:23.268Z,13.47
2022-08-20T09:32:53.057Z,13.07
2022-08-20T09:35:21.532Z,12.47
2022-08-20T09:37:50.988Z,12.50
2022-08-20T09:40:21.051Z,12.90
2022-08-20T09:42:51.351Z,13.87
2022-08-20T09:45:20.912Z,13.53
2022-08-20T09:47:56.199Z,12.47
2022-08-20T09:50:28.718Z,13.17
2022-08-20T09:53:00.479Z,12.70
2022-08-20T09:55:35.988Z,12.73
2022-08-20T09:58:09.437Z,11.90
2022-08-20T10:00:37.830Z,12.80
2022-08-20T10:03:06.156Z,12.83
2022-08-20T10:05:35.823Z,12.43
2022-08-20T10:08:07.697Z,12.10
2022-08-20T10:10:36.662Z,12.87
2022-08-20T10:13:05.400Z,12.80
2022-08-20T10:15:34.495Z,11.90
2022-08-20T10:18:07.877Z,12.70
2022-08-20T10:20:38.113Z,13.33
2022-08-20T10:23:06.725Z,11.77
2022-08-20T10:25:35.232Z,13.43
2022-08-20T10:28:04.447Z,12.43
2022-08-20T10:30:32.865Z,13.47
2022-08-20T10:33:01.181Z,12.40
2022-08-20T10:35:29.878Z,11.93
2022-08-20T10:37:59.813Z,13.33
2022-08-20T10:40:28.341Z,12.97
2022-08-20T10:42:56.687Z,12.87
2022-08-20T10:45:37.632Z,12.37
2022-08-20T10:48:08.661Z,13.63
2022-08-20T10:50:37.816Z,13.43
2022-08-20T10:53:07.446Z,13.03
2022-08-20T10:55:35.756Z,13.10
2022-08-20T10:58:06.937Z,13.27
2022-08-20T11:00:36.154Z,13.47
2022-08-20T11:03:04.762Z,12.57
2022-08-20T11:05:33.230Z,13.33
2022-08-20T11:08:06.316Z,13.27
2022-08-20T11:10:38.158Z,14.07
2022-08-20T11:13:08.761Z,12.97
2022-08-20T11:15:39.957Z,13.83
2022-08-20T11:18:08.981Z,12.57
2022-08-20T11:20:37.771Z,12.17
2022-08-20T11:23:07.571Z,12.93
2022-08-20T11:25:35.898Z,13.83
2022-08-20T11:28:04.643Z,12.50
2022-08-20T11:30:37.442Z,13.17
2022-08-20T11:33:06.671Z,12.67
2022-08-20T11:35:49.215Z,12.97
2022-08-20T11:38:20.054Z,12.57
2022-08-20T11:40:48.522Z,11.77
2022-08-20T11:43:17.831Z,12.10
2022-08-20T11:45:49.160Z,11.80
2022-08-20T11:48:17.941Z,11.60
2022-08-20T11:50:47.053Z,11.80
2022-08-20T11:53:15.464Z,11.73
2022-08-20T11:55:45.714Z,11.90
2022-08-20T11:58:14.034Z,10.17
2022-08-20T12:00:42.489Z,10.50
2022-08-20T12:03:12.016Z,9.53
2022-08-20T12:05:42.862Z,8.77
2022-08-20T12:08:27.159Z,9.70
2022-08-20T12:10:59.120Z,9.70
2022-08-20T12:13:30.861Z,9.90
2022-08-20T12:16:16.341Z,9.67
2022-08-20T12:18:44.640Z,9.20
2022-08-20T12:21:13.114Z,9.13
2022-08-20T12:23:41.368Z,9.37
2022-08-20T12:26:11.044Z,9.33
2022-08-20T12:28:39.482Z,8.67
2022-08-20T12:31:07.983Z,9.27
2022-08-20T12:33:36.364Z,8.73
2022-08-20T12:36:06.058Z,8.80
2022-08-20T12:38:34.408Z,8.90
2022-08-20T12:41:02.704Z,9.10
2022-08-20T12:43:32.353Z,8.60
2022-08-20T12:46:00.712Z,8.70
2022-08-20T12:48:29.234Z,9.20
2022-08-20T12:50:57.532Z,9.13
2022-08-20T12:53:25.875Z,8.53
2022-08-20T12:55:54.208Z,7.97
2022-08-20T12:58:22.607Z,8.00
2022-08-20T13:00:52.593Z,7.40
2022-08-20T13:03:21.452Z,7.90
2022-08-20T13:05:50.059Z,7.87
2022-08-20T13:08:19.361Z,8.17
2022-08-20T13:10:48.417Z,7.20
2022-08-20T13:13:20.576Z,6.27
2022-08-20T13:15:52.003Z,6.87
2022-08-20T13:18:21.362Z,6.60
2022-08-20T13:20:50.688Z,6.10
2022-08-20T13:23:19.263Z,6.20
2022-08-20T13:25:47.611Z,6.90
2022-08-20T13:28:15.918Z,6.43
2022-08-20T13:30:44.281Z,5.83
2022-08-20T13:33:13.984Z,5.57
2022-08-20T13:35:42.339Z,6.07
2022-08-20T13:38:10.715Z,6.00
2022-08-20T13:40:39.100Z,6.53
2022-08-20T13:43:07.792Z,6.40
2022-08-20T13:45:42.501Z,5.73
2022-08-20T13:48:14.829Z,6.13
2022-08-20T13:50:46.898Z,6.67
2022-08-20T13:53:17.213Z,5.90
2022-08-20T13:55:46.095Z,6.43
2022-08-20T13:58:14.664Z,6.10
2022-08-20T14:00:43.038Z,6.50
2022-08-20T14:03:11.875Z,6.03
2022-08-20T14:05:44.038Z,5.40
2022-08-20T14:08:13.839Z,6.33
2022-08-20T14:10:43.412Z,6.47
2022-08-20T14:13:15.578Z,7.27
2022-08-20T14:15:45.000Z,6.87
2022-08-20T14:18:15.373Z,6.07
2022-08-20T14:20:46.099Z,6.43
2022-08-20T14:23:15.163Z,7.07
2022-08-20T14:25:47.256Z,7.30
2022-08-20T14:28:18.564Z,7.07
2022-08-20T14:30:52.972Z,7.53
2022-08-20T14:33:23.166Z,6.80
2022-08-20T14:35:54.016Z,7.60
2022-08-20T14:38:22.762Z,6.67
2022-08-20T14:40:51.490Z,7.67
2022-08-20T14:43:20.349Z,7.00
2022-08-20T14:45:48.789Z,7.03
2022-08-20T14:48:17.333Z,6.87
2022-08-20T14:50:46.000Z,7.00
2022-08-20T14:53:15.889Z,7.23
2022-08-20T14:55:44.535Z,8.03
2022-08-20T14:58:15.120Z,7.33
2022-08-20T15:00:44.832Z,6.93
2022-08-20T15:03:14.406Z,7.30
2022-08-20T15:05:42.988Z,6.30
2022-08-20T15:08:12.622Z,7.10
2022-08-20T15:10:43.283Z,6.70
2022-08-20T15:13:11.674Z,6.97
2022-08-20T15:15:40.547Z,7.30
2022-08-20T15:18:09.363Z,6.63
2022-08-20T15:20:38.817Z,7.20
2022-08-20T15:23:07.812Z,5.80
2022-08-20T15:25:38.083Z,7.37
2022-08-20T15:28:10.574Z,6.93
2022-08-20T15:30:42.168Z,6.83
2022-08-20T15:33:11.626Z,7.33
2022-08-20T15:35:40.274Z,7.37
2022-08-20T15:38:08.882Z,7.60
2022-08-20T15:40:37.411Z,6.80
2022-08-20T15:43:07.818Z,7.13
2022-08-20T15:45:37.520Z,7.80
2022-08-20T15:48:14.086Z,8.20
2022-08-20T15:51:00.506Z,7.27
2022-08-20T15:53:36.739Z,8.17
2022-08-20T15:56:16.855Z,9.07
2022-08-20T15:58:58.900Z,8.50
2022-08-20T16:01:39.482Z,7.33
2022-08-20T16:04:29.362Z,8.50
2022-08-20T16:07:08.177Z,7.47
2022-08-20T16:09:54.606Z,8.70
2022-08-20T16:12:33.749Z,8.03
2022-08-20T16:15:10.015Z,9.20
2022-08-20T16:17:45.776Z,8.67
2022-08-20T16:20:22.785Z,8.70
2022-08-20T16:22:55.274Z,9.67
2022-08-20T16:25:29.111Z,8.73
2022-08-20T16:28:12.338Z,8.23
2022-08-20T16:30:46.707Z,9.20
2022-08-20T16:33:22.901Z,9.50
2022-08-20T16:35:56.481Z,9.00
2022-08-20T16:38:39.689Z,9.80
2022-08-20T16:41:15.327Z,9.80
2022-08-20T16:43:53.449Z,9.57
2022-08-20T16:46:28.132Z,9.80
2022-08-20T16:49:00.670Z,9.50
2022-08-20T16:51:38.652Z,9.93
2022-08-20T16:54:08.175Z,10.27
2022-08-20T16:56:40.234Z,9.97
2022-08-20T16:59:12.620Z,10.30
2022-08-20T17:02:07.098Z,10.83
2022-08-20T17:04:58.716Z,10.93
2022-08-20T17:07:33.489Z,10.17
2022-08-20T17:10:20.419Z,10.13
2022-08-20T17:12:57.037Z,10.70
2022-08-20T17:15:29.769Z,9.20
2022-08-20T17:18:17.135Z,11.03
2022-08-20T17:20:47.044Z,10.27
2022-08-20T17:23:18.451Z,10.27
2022-08-20T17:25:56.818Z,10.87
2022-08-20T17:28:25.098Z,9.93
2022-08-20T17:30:55.151Z,11.40
2022-08-20T17:33:30.670Z,12.10
2022-08-20T17:36:02.419Z,11.83
2022-08-20T17:38:40.050Z,9.03
2022-08-20T17:41:17.264Z,8.63
2022-08-20T17:43:46.617Z,6.87
2022-08-20T17:46:17.867Z,6.53
2022-08-20T17:48:50.122Z,7.07
2022-08-20T17:51:21.133Z,7.20
2022-08-20T17:53:56.309Z,9.03
2022-08-20T17:56:30.861Z,8.30
2022-08-20T17:59:10.262Z,8.77
2022-08-20T18:01:39.432Z,7.80
2022-08-20T18:04:09.415Z,7.67
2022-08-20T18:06:46.060Z,8.80
2022-08-20T18:09:21.690Z,7.47
2022-08-20T18:11:57.540Z,5.90
2022-08-20T18:14:47.234Z,5.63
2022-08-20T18:17:50.519Z,4.90
2022-08-20T18:20:49.596Z,4.87
2022-08-20T18:23:23.060Z,5.80
2022-08-20T18:25:58.364Z,5.70
2022-08-20T18:28:38.235Z,5.17
2022-08-20T18:31:10.444Z,5.57
2022-08-20T18:33:42.267Z,5.17
2022-08-20T18:36:24.537Z,4.93
2022-08-20T18:39:02.741Z,4.80
2022-08-20T18:41:33.907Z,5.37
2022-08-20T18:44:09.838Z,4.67
2022-08-20T18:46:39.168Z,4.80
2022-08-20T18:49:09.665Z,5.33
2022-08-20T18:51:49.337Z,4.70
2022-08-20T18:54:25.204Z,4.60
2022-08-20T18:57:05.734Z,4.60
2022-08-20T18:59:41.394Z,4.60
2022-08-20T19:02:23.796Z,4.03
2022-08-20T19:05:02.122Z,4.00
2022-08-20T19:07:45.781Z,3.97
2022-08-20T19:10:40.925Z,3.20
2022-08-20T19:13:46.102Z,3.60
2022-08-20T19:16:20.810Z,3.67
2022-08-20T19:18:54.095Z,3.67
2022-08-20T19:21:27.557Z,3.53
2022-08-20T19:24:02.760Z,3.33
2022-08-20T19:26:34.616Z,3.20
2022-08-20T19:29:10.584Z,3.40
2022-08-20T19:31:39.106Z,3.30
2022-08-20T19:34:20.209Z,3.20
2022-08-20T19:36:57.525Z,3.43
2022-08-20T19:39:29.826Z,3.20
2022-08-20T19:42:03.683Z,2.83
2022-08-20T19:44:38.264Z,3.13
2022-08-20T19:47:15.672Z,3.17
2022-08-20T19:49:59.799Z,2.47
2022-08-20T19:52:41.069Z,3.20
2022-08-20T19:55:22.005Z,3.20
2022-08-20T19:57:57.627Z,3.23
2022-08-20T20:00:29.577Z,3.13
2022-08-20T20:02:58.457Z,3.20
2022-08-20T20:05:27.058Z,3.00
2022-08-20T20:08:00.102Z,3.30
2022-08-20T20:10:34.744Z,3.20
2022-08-20T20:13:09.976Z,2.97
2022-08-20T20:15:39.607Z,2.90
2022-08-20T20:18:09.210Z,3.43
2022-08-20T20:20:50.288Z,2.87
2022-08-20T20:23:45.694Z,2.73
2022-08-20T20:26:19.867Z,2.93
2022-08-20T20:28:52.934Z,3.20
2022-08-20T20:31:26.233Z,3.37
2022-08-20T20:33:58.487Z,3.13
2022-08-20T20:36:37.739Z,3.73
2022-08-20T20:39:14.157Z,3.23
2022-08-20T20:41:53.378Z,3.00
2022-08-20T20:44:26.140Z,3.33
2022-08-20T20:46:59.445Z,3.13
2022-08-20T20:49:32.927Z,2.97
2022-08-20T20:52:06.149Z,2.30
2022-08-20T20:54:46.374Z,2.73
2022-08-20T20:57:37.875Z,2.97
2022-08-20T21:00:12.474Z,2.90
2022-08-20T21:02:41.500Z,3.10
2022-08-20T21:05:11.581Z,2.93
2022-08-20T21:07:50.654Z,2.50
2022-08-20T21:10:21.888Z,2.90
2022-08-20T21:12:53.240Z,2.80
2022-08-20T21:15:25.590Z,2.93
2022-08-20T21:17:54.990Z,2.73
2022-08-20T21:20:23.938Z,2.77
2022-08-20T21:22:52.403Z,2.93
2022-08-20T21:25:21.392Z,2.40
2022-08-20T21:27:53.389Z,2.70
2022-08-20T21:30:23.693Z,3.00
2022-08-20T21:32:52.399Z,2.80
2022-08-20T21:35:21.314Z,2.80
2022-08-20T21:37:50.071Z,2.57
2022-08-20T21:40:21.677Z,2.93
2022-08-20T21:42:52.156Z,2.33
2022-08-20T21:45:22.363Z,2.30
2022-08-20T21:47:50.826Z,2.73
2022-08-20T21:50:21.142Z,3.10
2022-08-20T21:52:59.243Z,2.80
2022-08-20T21:55:33.056Z,2.90
2022-08-20T21:58:06.343Z,3.17
2022-08-20T22:00:56.755Z,3.00
2022-08-20T22:03:29.344Z,2.90
2022-08-20T22:06:00.469Z,3.13
2022-08-20T22:08:29.854Z,2.80
2022-08-20T22:10:59.681Z,2.87
2022-08-20T22:13:32.764Z,3.13
2022-08-20T22:16:01.464Z,2.87
2022-08-20T22:18:29.991Z,3.80
2022-08-20T22:20:58.606Z,3.63
2022-08-20T22:23:27.418Z,3.60
2022-08-20T22:25:55.899Z,3.60
2022-08-20T22:28:24.305Z,3.43
2022-08-20T22:30:54.599Z,3.60
2022-08-20T22:33:24.690Z,4.27
2022-08-20T22:35:56.444Z,3.90
2022-08-20T22:38:25.047Z,3.80
2022-08-20T22:40:54.125Z,3.93
2022-08-20T22:43:23.261Z,3.83
2022-08-20T22:45:56.876Z,4.27
2022-08-20T22:48:25.330Z,4.57
2022-08-20T22:50:54.513Z,4.60
2022-08-20T22:53:26.131Z,4.20
2022-08-20T22:55:55.306Z,4.27
2022-08-20T22:58:31.215Z,4.63
2022-08-20T23:01:04.850Z,4.50
2022-08-20T23:03:39.584Z,4.50
2022-08-20T23:06:10.532Z,4.70
2022-08-20T23:08:39.681Z,5.00
2022-08-20T23:11:08.451Z,4.83
2022-08-20T23:13:36.864Z,4.67
2022-08-20T23:16:08.299Z,5.47
2022-08-20T23:18:36.691Z,4.63
2022-08-20T23:21:05.434Z,4.47
2022-08-20T23:23:33.857Z,5.50
2022-08-20T23:26:02.595Z,5.10
2022-08-20T23:28:31.162Z,4.50
2022-08-20T23:30:59.791Z,5.20
2022-08-20T23:33:31.376Z,4.80
2022-08-20T23:36:05.351Z,5.43
2022-08-20T23:38:33.777Z,4.93
2022-08-20T23:41:02.137Z,5.03
2022-08-20T23:43:30.687Z,4.63
2022-08-20T23:46:03.109Z,5.33
2022-08-20T23:48:33.480Z,5.73
2022-08-20T23:51:01.914Z,5.07
2022-08-20T23:53:30.266Z,5.27
2022-08-20T23:55:58.631Z,5.10
2022-08-20T23:58:27.138Z,5.07
